createdAt,value
2018-11-27T00:00:57.330Z,0.00
2018-11-27T00:01:57.435Z,0.00
2018-11-27T00:02:57.411Z,0.00
2018-11-27T00:03:57.477Z,0.00
2018-11-27T00:04:57.509Z,0.00
2018-11-27T00:05:57.534Z,0.00
2018-11-27T00:06:57.579Z,0.00
2018-11-27T00:07:57.618Z,0.00
2018-11-27T00:08:57.718Z,0.00
2018-11-27T00:09:57.701Z,0.00
2018-11-27T00:10:57.740Z,0.00
2018-11-27T00:11:57.781Z,0.00
2018-11-27T00:12:57.830Z,0.00
2018-11-27T00:13:57.882Z,0.00
2018-11-27T00:14:57.901Z,0.00
2018-11-27T00:15:57.944Z,0.00
2018-11-27T00:16:57.989Z,0.00
2018-11-27T00:17:58.760Z,0.00
2018-11-27T00:18:58.068Z,0.00
2018-11-27T00:19:58.136Z,0.00
2018-11-27T00:20:58.152Z,0.00
2018-11-27T00:21:58.195Z,0.00
2018-11-27T00:22:58.234Z,0.00
2018-11-27T00:23:58.280Z,0.00
2018-11-27T00:24:58.333Z,0.00
2018-11-27T00:25:58.360Z,0.00
2018-11-27T00:26:58.404Z,0.00
2018-11-27T00:27:58.438Z,0.00
2018-11-27T00:28:58.480Z,0.00
2018-11-27T00:29:58.546Z,0.00
2018-11-27T00:30:58.585Z,0.00
2018-11-27T00:31:58.620Z,0.00
2018-11-27T00:32:58.647Z,0.00
2018-11-27T00:33:58.729Z,0.00
2018-11-27T00:34:58.725Z,0.00
2018-11-27T00:35:58.774Z,0.00
2018-11-27T00:36:58.831Z,0.00
2018-11-27T00:37:58.851Z,0.00
2018-11-27T00:38:58.897Z,0.00
2018-11-27T00:39:58.940Z,0.00
2018-11-27T00:40:59.067Z,0.00
2018-11-27T00:41:59.039Z,0.00
2018-11-27T00:42:59.063Z,0.00
2018-11-27T00:43:59.099Z,0.00
2018-11-27T00:44:59.143Z,0.00
2018-11-27T00:45:59.185Z,0.00
2018-11-27T00:46:59.247Z,0.00
2018-11-27T00:47:59.261Z,0.00
2018-11-27T00:48:59.305Z,0.00
2018-11-27T00:49:59.346Z,0.00
2018-11-27T00:50:59.386Z,0.00
2018-11-27T00:51:59.449Z,0.00
2018-11-27T00:52:59.478Z,0.00
2018-11-27T00:53:59.510Z,0.00
2018-11-27T00:54:59.553Z,0.00
2018-11-27T00:55:59.657Z,0.00
2018-11-27T00:56:59.666Z,0.00
2018-11-27T00:57:59.692Z,0.00
2018-11-27T00:58:59.719Z,0.00
2018-11-27T00:59:59.766Z,0.00
2018-11-27T01:00:59.798Z,0.00
2018-11-27T01:01:59.867Z,0.00
2018-11-27T01:02:59.899Z,0.00
2018-11-27T01:03:59.921Z,0.00
2018-11-27T01:04:59.968Z,0.00
2018-11-27T01:06:00.071Z,0.00
2018-11-27T01:07:00.045Z,0.00
2018-11-27T01:08:00.106Z,0.00
2018-11-27T01:09:00.145Z,0.00
2018-11-27T01:10:00.176Z,0.00
2018-11-27T01:11:00.215Z,0.00
2018-11-27T01:12:00.251Z,0.00
2018-11-27T01:13:00.317Z,0.00
2018-11-27T01:14:00.346Z,0.00
2018-11-27T01:15:00.377Z,0.00
2018-11-27T01:16:00.423Z,0.00
2018-11-27T01:17:00.459Z,0.00
2018-11-27T01:18:00.529Z,0.00
2018-11-27T01:19:00.557Z,0.00
2018-11-27T01:20:00.592Z,0.00
2018-11-27T01:21:00.621Z,0.00
2018-11-27T01:22:00.662Z,0.00
2018-11-27T01:23:00.703Z,0.00
2018-11-27T01:24:00.767Z,0.00
2018-11-27T01:25:00.815Z,0.00
2018-11-27T01:26:00.824Z,0.00
2018-11-27T01:27:00.866Z,0.00
2018-11-27T01:28:00.910Z,0.00
2018-11-27T01:29:00.954Z,0.00
2018-11-27T01:30:01.010Z,0.00
2018-11-27T01:31:01.052Z,0.00
2018-11-27T01:32:01.081Z,0.00
2018-11-27T01:33:01.117Z,0.00
2018-11-27T01:34:01.156Z,0.00
2018-11-27T01:35:01.196Z,0.00
2018-11-27T01:36:01.388Z,0.00
2018-11-27T01:37:01.284Z,0.00
2018-11-27T01:38:01.331Z,0.00
2018-11-27T01:39:01.363Z,0.00
2018-11-27T01:40:01.403Z,0.00
2018-11-27T01:41:01.467Z,0.00
2018-11-27T01:42:01.487Z,0.00
2018-11-27T01:43:01.528Z,0.00
2018-11-27T01:44:01.591Z,0.00
2018-11-27T01:45:01.611Z,0.00
2018-11-27T01:46:01.671Z,0.00
2018-11-27T01:47:01.723Z,0.00
2018-11-27T01:48:01.733Z,0.00
2018-11-27T01:49:01.797Z,0.00
2018-11-27T01:50:01.818Z,0.00
2018-11-27T01:51:01.864Z,0.00
2018-11-27T01:52:01.898Z,0.00
2018-11-27T01:53:01.944Z,0.00
2018-11-27T01:54:02.058Z,0.00
2018-11-27T01:55:02.032Z,0.00
2018-11-27T01:56:02.066Z,0.00
2018-11-27T01:57:02.121Z,0.00
2018-11-27T01:58:02.159Z,0.00
2018-11-27T01:59:02.183Z,0.00
2018-11-27T02:00:02.227Z,0.00
2018-11-27T02:01:02.295Z,0.00
2018-11-27T02:02:02.309Z,0.00
2018-11-27T02:03:02.368Z,0.00
2018-11-27T02:04:02.390Z,0.00
2018-11-27T02:05:02.430Z,0.00
2018-11-27T02:06:02.470Z,0.00
2018-11-27T02:07:02.515Z,0.00
2018-11-27T02:08:02.655Z,0.00
2018-11-27T02:09:02.593Z,0.00
2018-11-27T02:10:02.636Z,0.00
2018-11-27T02:11:02.683Z,0.00
2018-11-27T02:12:02.724Z,0.00
2018-11-27T02:13:02.787Z,0.00
2018-11-27T02:14:02.800Z,0.00
2018-11-27T02:15:02.859Z,0.00
2018-11-27T02:16:02.883Z,0.00
2018-11-27T02:17:02.926Z,0.00
2018-11-27T02:18:02.995Z,0.00
2018-11-27T02:19:03.023Z,0.00
2018-11-27T02:20:03.045Z,0.00
2018-11-27T02:21:03.091Z,0.00
2018-11-27T02:22:03.128Z,0.00
2018-11-27T02:23:03.192Z,0.00
2018-11-27T02:24:03.229Z,0.00
2018-11-27T02:25:03.250Z,0.00
2018-11-27T02:26:03.325Z,0.00
2018-11-27T02:27:03.334Z,0.00
2018-11-27T02:28:03.376Z,0.00
2018-11-27T02:29:03.439Z,0.00
2018-11-27T02:30:03.461Z,0.00
2018-11-27T02:31:03.498Z,0.00
2018-11-27T02:32:03.539Z,0.00
2018-11-27T02:33:03.637Z,0.00
2018-11-27T02:34:03.640Z,0.00
2018-11-27T02:35:03.661Z,0.00
2018-11-27T02:36:03.723Z,0.00
2018-11-27T02:37:03.748Z,0.00
2018-11-27T02:38:03.793Z,0.00
2018-11-27T02:39:03.825Z,0.00
2018-11-27T02:40:03.922Z,0.00
2018-11-27T02:41:03.944Z,0.00
2018-11-27T02:42:03.949Z,0.00
2018-11-27T02:43:03.990Z,0.00
2018-11-27T02:44:04.040Z,0.00
2018-11-27T02:45:04.073Z,0.00
2018-11-27T02:46:04.135Z,0.00
2018-11-27T02:47:04.164Z,0.00
2018-11-27T02:48:04.192Z,0.00
2018-11-27T02:49:04.250Z,0.00
2018-11-27T02:50:04.277Z,0.00
2018-11-27T02:51:04.332Z,0.00
2018-11-27T02:52:04.374Z,0.00
2018-11-27T02:53:04.397Z,0.00
2018-11-27T02:54:04.440Z,0.00
2018-11-27T02:55:04.481Z,0.00
2018-11-27T02:56:04.572Z,0.00
2018-11-27T02:57:04.588Z,0.00
2018-11-27T02:58:04.631Z,0.00
2018-11-27T02:59:04.644Z,0.00
2018-11-27T03:00:04.687Z,0.00
2018-11-27T03:01:04.730Z,0.00
2018-11-27T03:02:04.788Z,0.00
2018-11-27T03:03:04.810Z,0.00
2018-11-27T03:04:04.851Z,0.00
2018-11-27T03:05:04.887Z,0.00
2018-11-27T03:06:04.932Z,0.00
2018-11-27T03:07:05.000Z,0.00
2018-11-27T03:08:05.016Z,0.00
2018-11-27T03:09:05.055Z,0.00
2018-11-27T03:10:05.096Z,0.00
2018-11-27T03:11:05.145Z,0.00
2018-11-27T03:12:05.196Z,0.00
2018-11-27T03:13:05.218Z,0.00
2018-11-27T03:14:05.270Z,0.00
2018-11-27T03:15:05.319Z,0.00
2018-11-27T03:16:05.362Z,0.00
2018-11-27T03:17:05.388Z,0.00
2018-11-27T03:18:05.441Z,0.00
2018-11-27T03:19:05.481Z,0.00
2018-11-27T03:20:05.504Z,0.00
2018-11-27T03:21:05.551Z,0.00
2018-11-27T03:22:05.589Z,0.00
2018-11-27T03:23:05.633Z,0.00
2018-11-27T03:24:05.688Z,0.00
2018-11-27T03:25:05.710Z,0.00
2018-11-27T03:26:05.756Z,0.00
2018-11-27T03:27:05.794Z,0.00
2018-11-27T03:28:06.019Z,0.00
2018-11-27T03:29:05.871Z,0.00
2018-11-27T03:30:05.909Z,0.00
2018-11-27T03:31:05.952Z,0.00
2018-11-27T03:32:06.005Z,0.00
2018-11-27T03:33:06.057Z,0.00
2018-11-27T03:34:06.077Z,0.00
2018-11-27T03:35:06.136Z,0.00
2018-11-27T03:36:06.157Z,0.00
2018-11-27T03:37:06.245Z,0.00
2018-11-27T03:38:06.239Z,0.00
2018-11-27T03:39:06.282Z,0.00
2018-11-27T03:40:06.320Z,0.00
2018-11-27T03:41:06.362Z,0.00
2018-11-27T03:42:06.440Z,0.00
2018-11-27T03:43:06.452Z,0.00
2018-11-27T03:44:06.486Z,0.00
2018-11-27T03:45:06.528Z,0.00
2018-11-27T03:46:06.607Z,0.00
2018-11-27T03:47:06.618Z,0.00
2018-11-27T03:48:06.649Z,0.00
2018-11-27T03:49:06.688Z,0.00
2018-11-27T03:50:06.737Z,0.00
2018-11-27T03:51:06.799Z,0.00
2018-11-27T03:52:06.815Z,0.00
2018-11-27T03:53:06.914Z,0.00
2018-11-27T03:54:06.893Z,0.00
2018-11-27T03:55:06.931Z,0.00
2018-11-27T03:56:06.992Z,0.00
2018-11-27T03:57:07.014Z,0.00
2018-11-27T03:58:07.076Z,0.00
2018-11-27T03:59:07.092Z,0.00
2018-11-27T04:00:07.209Z,0.00
2018-11-27T04:01:07.178Z,0.00
2018-11-27T04:02:07.219Z,0.00
2018-11-27T04:03:07.283Z,0.00
2018-11-27T04:04:09.997Z,0.00
2018-11-27T04:05:07.345Z,0.00
2018-11-27T04:06:07.384Z,0.00
2018-11-27T04:07:07.424Z,0.00
2018-11-27T04:08:07.485Z,0.00
2018-11-27T04:09:07.509Z,0.00
2018-11-27T04:10:07.561Z,0.00
2018-11-27T04:11:07.584Z,0.00
2018-11-27T04:12:07.677Z,0.00
2018-11-27T04:13:07.665Z,0.00
2018-11-27T04:14:07.726Z,0.00
2018-11-27T04:15:07.757Z,0.00
2018-11-27T04:16:07.789Z,0.00
2018-11-27T04:17:07.829Z,0.00
2018-11-27T04:18:07.888Z,0.00
2018-11-27T04:19:07.930Z,0.00
2018-11-27T04:20:07.952Z,0.00
2018-11-27T04:21:08.014Z,0.00
2018-11-27T04:22:08.033Z,0.00
2018-11-27T04:23:08.075Z,0.00
2018-11-27T04:24:08.140Z,0.00
2018-11-27T04:25:08.252Z,0.00
2018-11-27T04:26:08.197Z,0.00
2018-11-27T04:27:08.237Z,0.00
2018-11-27T04:28:08.279Z,0.00
2018-11-27T04:29:08.347Z,0.00
2018-11-27T04:30:08.363Z,0.00
2018-11-27T04:31:08.423Z,0.00
2018-11-27T04:32:08.466Z,0.00
2018-11-27T04:33:08.479Z,0.00
2018-11-27T04:34:08.521Z,0.00
2018-11-27T04:35:08.561Z,0.00
2018-11-27T04:36:08.622Z,0.00
2018-11-27T04:37:08.654Z,0.00
2018-11-27T04:38:08.699Z,0.00
2018-11-27T04:39:08.726Z,0.00
2018-11-27T04:40:08.772Z,0.00
2018-11-27T04:41:08.844Z,0.00
2018-11-27T04:42:08.844Z,0.00
2018-11-27T04:43:08.888Z,0.00
2018-11-27T04:44:08.931Z,0.00
2018-11-27T04:45:08.969Z,0.00
2018-11-27T04:46:09.033Z,0.00
2018-11-27T04:47:09.050Z,0.00
2018-11-27T04:48:09.170Z,0.00
2018-11-27T04:49:09.132Z,0.00
2018-11-27T04:50:09.212Z,0.00
2018-11-27T04:51:09.233Z,0.00
2018-11-27T04:52:09.288Z,0.00
2018-11-27T04:53:09.293Z,0.00
2018-11-27T04:54:09.334Z,0.00
2018-11-27T04:55:09.376Z,0.00
2018-11-27T04:56:09.417Z,0.00
2018-11-27T04:57:09.480Z,0.00
2018-11-27T04:58:09.504Z,0.00
2018-11-27T04:59:09.540Z,0.00
2018-11-27T05:00:09.590Z,0.00
2018-11-27T05:01:09.617Z,0.00
2018-11-27T05:02:09.676Z,0.00
2018-11-27T05:03:09.708Z,0.00
2018-11-27T05:04:09.744Z,0.00
2018-11-27T05:05:09.779Z,0.00
2018-11-27T05:06:09.821Z,0.00
2018-11-27T05:07:09.878Z,0.00
2018-11-27T05:08:09.901Z,0.00
2018-11-27T05:09:09.939Z,0.00
2018-11-27T05:10:09.981Z,0.00
2018-11-27T05:11:10.023Z,0.00
2018-11-27T05:12:10.081Z,0.00
2018-11-27T05:13:10.121Z,0.00
2018-11-27T05:14:10.146Z,0.00
2018-11-27T05:15:10.184Z,0.00
2018-11-27T05:16:10.247Z,0.00
2018-11-27T05:17:10.264Z,0.00
2018-11-27T05:18:10.304Z,0.00
2018-11-27T05:19:10.342Z,0.00
2018-11-27T05:20:10.384Z,0.00
2018-11-27T05:21:10.451Z,0.00
2018-11-27T05:22:10.498Z,0.00
2018-11-27T05:23:10.515Z,0.00
2018-11-27T05:24:10.575Z,0.00
2018-11-27T05:25:10.598Z,0.00
2018-11-27T05:26:10.624Z,0.00
2018-11-27T05:27:10.671Z,0.00
2018-11-27T05:28:10.710Z,0.00
2018-11-27T05:29:10.777Z,0.00
2018-11-27T05:30:10.793Z,0.00
2018-11-27T05:31:10.839Z,0.00
2018-11-27T05:32:10.872Z,0.00
2018-11-27T05:33:10.914Z,0.00
2018-11-27T05:34:10.988Z,0.00
2018-11-27T05:35:10.994Z,0.00
2018-11-27T05:36:11.038Z,0.00
2018-11-27T05:37:11.071Z,0.00
2018-11-27T05:38:11.115Z,0.00
2018-11-27T05:39:11.178Z,0.00
2018-11-27T05:40:11.200Z,0.00
2018-11-27T05:41:11.247Z,0.00
2018-11-27T05:42:11.279Z,0.00
2018-11-27T05:43:11.339Z,0.00
2018-11-27T05:44:11.358Z,0.00
2018-11-27T05:45:11.432Z,0.00
2018-11-27T05:46:11.436Z,0.00
2018-11-27T05:47:11.479Z,0.00
2018-11-27T05:48:11.541Z,0.00
2018-11-27T05:49:11.571Z,0.00
2018-11-27T05:50:11.596Z,0.00
2018-11-27T05:51:11.661Z,0.00
2018-11-27T05:52:11.678Z,0.00
2018-11-27T05:53:11.740Z,0.00
2018-11-27T05:54:11.761Z,0.00
2018-11-27T05:55:11.799Z,0.00
2018-11-27T05:56:11.837Z,0.00
2018-11-27T05:57:11.882Z,0.00
2018-11-27T05:58:11.941Z,0.00
2018-11-27T05:59:11.992Z,0.00
2018-11-27T06:00:11.999Z,0.00
2018-11-27T06:01:12.058Z,0.00
2018-11-27T06:02:12.086Z,0.00
2018-11-27T06:03:12.124Z,0.00
2018-11-27T06:04:12.180Z,0.00
2018-11-27T06:05:12.207Z,0.00
2018-11-27T06:06:12.242Z,0.00
2018-11-27T06:07:12.283Z,0.00
2018-11-27T06:08:12.324Z,0.00
2018-11-27T06:09:12.389Z,0.00
2018-11-27T06:10:12.409Z,0.00
2018-11-27T06:11:12.447Z,0.00
2018-11-27T06:12:12.484Z,0.00
2018-11-27T06:13:12.525Z,0.00
2018-11-27T06:14:12.582Z,4.00
2018-11-27T06:15:12.630Z,4.00
2018-11-27T06:16:12.649Z,4.00
2018-11-27T06:17:12.704Z,4.00
2018-11-27T06:18:12.729Z,4.00
2018-11-27T06:19:12.768Z,8.00
2018-11-27T06:20:12.836Z,8.00
2018-11-27T06:21:12.849Z,12.00
2018-11-27T06:22:12.904Z,12.00
2018-11-27T06:23:12.932Z,16.00
2018-11-27T06:24:12.968Z,20.00
2018-11-27T06:25:13.035Z,20.00
2018-11-27T06:26:13.073Z,24.00
2018-11-27T06:27:13.096Z,32.00
2018-11-27T06:28:13.129Z,36.00
2018-11-27T06:29:13.171Z,40.00
2018-11-27T06:30:13.212Z,48.00
2018-11-27T06:31:13.276Z,60.00
2018-11-27T06:32:13.296Z,68.00
2018-11-27T06:33:13.338Z,72.00
2018-11-27T06:34:13.375Z,84.00
2018-11-27T06:35:13.441Z,96.00
2018-11-27T06:36:13.493Z,108.00
2018-11-27T06:37:13.499Z,120.00
2018-11-27T06:38:13.539Z,132.00
2018-11-27T06:39:13.579Z,144.00
2018-11-27T06:40:13.647Z,156.00
2018-11-27T06:41:13.668Z,168.00
2018-11-27T06:42:13.742Z,172.00
2018-11-27T06:43:13.743Z,180.00
2018-11-27T06:44:13.785Z,184.00
2018-11-27T06:45:13.842Z,184.00
2018-11-27T06:46:13.863Z,188.00
2018-11-27T06:47:13.940Z,184.00
2018-11-27T06:48:13.941Z,188.00
2018-11-27T06:49:14.015Z,188.00
2018-11-27T06:50:14.685Z,196.00
2018-11-27T06:51:14.062Z,208.00
2018-11-27T06:52:14.136Z,224.00
2018-11-27T06:53:14.138Z,244.00
2018-11-27T06:54:14.190Z,260.00
2018-11-27T06:55:14.225Z,280.00
2018-11-27T06:56:14.979Z,288.00
2018-11-27T06:57:14.397Z,300.00
2018-11-27T06:58:14.345Z,308.00
2018-11-27T06:59:14.400Z,324.00
2018-11-27T07:00:14.436Z,340.00
2018-11-27T07:01:14.466Z,364.00
2018-11-27T07:02:14.533Z,392.00
2018-11-27T07:03:14.545Z,424.00
2018-11-27T07:04:14.609Z,468.00
2018-11-27T07:05:14.662Z,512.00
2018-11-27T07:06:14.670Z,564.00
2018-11-27T07:07:14.752Z,616.00
2018-11-27T07:08:14.748Z,672.00
2018-11-27T07:09:14.808Z,716.00
2018-11-27T07:10:14.840Z,756.00
2018-11-27T07:11:14.870Z,788.00
2018-11-27T07:12:14.910Z,812.00
2018-11-27T07:13:14.975Z,844.00
2018-11-27T07:14:14.990Z,868.00
2018-11-27T07:15:15.036Z,896.00
2018-11-27T07:16:15.093Z,928.00
2018-11-27T07:17:15.133Z,964.00
2018-11-27T07:18:15.160Z,1004.00
2018-11-27T07:19:15.236Z,1052.00
2018-11-27T07:20:15.235Z,1108.00
2018-11-27T07:21:15.278Z,1172.00
2018-11-27T07:22:15.314Z,1240.00
2018-11-27T07:23:15.364Z,1296.00
2018-11-27T07:24:15.420Z,1340.00
2018-11-27T07:25:15.439Z,1368.00
2018-11-27T07:26:15.486Z,1384.00
2018-11-27T07:27:15.518Z,1400.00
2018-11-27T07:28:15.563Z,1408.00
2018-11-27T07:29:15.626Z,1420.00
2018-11-27T07:30:15.689Z,1428.00
2018-11-27T07:31:15.705Z,1416.00
2018-11-27T07:32:15.739Z,1368.00
2018-11-27T07:33:15.759Z,1284.00
2018-11-27T07:34:15.803Z,1180.00
2018-11-27T07:35:15.842Z,1088.00
2018-11-27T07:36:15.905Z,1036.00
2018-11-27T07:37:16.063Z,1012.00
2018-11-27T07:38:16.008Z,1020.00
2018-11-27T07:39:16.009Z,1052.00
2018-11-27T07:40:16.051Z,1084.00
2018-11-27T07:41:16.095Z,1112.00
2018-11-27T07:42:16.132Z,1124.00
2018-11-27T07:43:16.190Z,1132.00
2018-11-27T07:44:16.211Z,1140.00
2018-11-27T07:45:16.251Z,1152.00
2018-11-27T07:46:16.292Z,1164.00
2018-11-27T07:47:16.343Z,1192.00
2018-11-27T07:48:16.401Z,1220.00
2018-11-27T07:49:16.437Z,1264.00
2018-11-27T07:50:16.456Z,1308.00
2018-11-27T07:51:16.518Z,1340.00
2018-11-27T07:52:16.555Z,1356.00
2018-11-27T07:53:16.574Z,1364.00
2018-11-27T07:54:16.616Z,1364.00
2018-11-27T07:55:16.683Z,1356.00
2018-11-27T07:56:16.701Z,1364.00
2018-11-27T07:57:16.739Z,1384.00
2018-11-27T07:58:16.787Z,1428.00
2018-11-27T07:59:16.819Z,1492.00
2018-11-27T08:00:16.888Z,1572.00
2018-11-27T08:01:16.920Z,1652.00
2018-11-27T08:02:17.041Z,1708.00
2018-11-27T08:03:16.993Z,1736.00
2018-11-27T08:04:17.033Z,1724.00
2018-11-27T08:05:17.065Z,1684.00
2018-11-27T08:06:17.107Z,1648.00
2018-11-27T08:07:17.169Z,1656.00
2018-11-27T08:08:17.187Z,1700.00
2018-11-27T08:09:17.364Z,1772.00
2018-11-27T08:10:17.268Z,1864.00
2018-11-27T08:11:17.310Z,1948.00
2018-11-27T08:12:17.373Z,2016.00
2018-11-27T08:13:17.396Z,2052.00
2018-11-27T08:14:17.430Z,2056.00
2018-11-27T08:15:17.504Z,2044.00
2018-11-27T08:16:17.518Z,2032.00
2018-11-27T08:17:17.585Z,2052.00
2018-11-27T08:18:17.594Z,2124.00
2018-11-27T08:19:17.640Z,2240.00
2018-11-27T08:20:17.679Z,2392.00
2018-11-27T08:21:17.718Z,2588.00
2018-11-27T08:22:17.777Z,2780.00
2018-11-27T08:23:17.853Z,2948.00
2018-11-27T08:24:17.841Z,3064.00
2018-11-27T08:25:17.880Z,3112.00
2018-11-27T08:26:17.921Z,3084.00
2018-11-27T08:27:17.971Z,3000.00
2018-11-27T08:28:18.044Z,2896.00
2018-11-27T08:29:18.045Z,2792.00
2018-11-27T08:30:18.096Z,2732.00
2018-11-27T08:31:18.128Z,2792.00
2018-11-27T08:32:18.167Z,2936.00
2018-11-27T08:33:18.231Z,3020.00
2018-11-27T08:34:18.304Z,3016.00
2018-11-27T08:35:18.298Z,2972.00
2018-11-27T08:36:18.354Z,2928.00
2018-11-27T08:37:18.377Z,2876.00
2018-11-27T08:38:18.415Z,2776.00
2018-11-27T08:39:18.472Z,2676.00
2018-11-27T08:40:18.507Z,2620.00
2018-11-27T08:41:18.601Z,2632.00
2018-11-27T08:42:18.576Z,2680.00
2018-11-27T08:43:18.619Z,2668.00
2018-11-27T08:44:19.672Z,2596.00
2018-11-27T08:45:18.700Z,2472.00
2018-11-27T08:46:18.763Z,2384.00
2018-11-27T08:47:18.782Z,2308.00
2018-11-27T08:48:18.834Z,2284.00
2018-11-27T08:49:18.863Z,2344.00
2018-11-27T08:50:18.906Z,2472.00
2018-11-27T08:51:18.973Z,2604.00
2018-11-27T08:52:19.005Z,2740.00
2018-11-27T08:53:19.037Z,2896.00
2018-11-27T08:54:19.070Z,3060.00
2018-11-27T08:55:19.108Z,3220.00
2018-11-27T08:56:19.192Z,3368.00
2018-11-27T08:57:19.309Z,3440.00
2018-11-27T08:58:19.232Z,3444.00
2018-11-27T08:59:19.340Z,3404.00
2018-11-27T09:00:19.324Z,3360.00
2018-11-27T09:01:19.363Z,3340.00
2018-11-27T09:02:19.437Z,3408.00
2018-11-27T09:03:19.443Z,3488.00
2018-11-27T09:04:19.484Z,3424.00
2018-11-27T09:05:19.541Z,3156.00
2018-11-27T09:06:19.562Z,2772.00
2018-11-27T09:07:19.642Z,2620.00
2018-11-27T09:08:19.644Z,2748.00
2018-11-27T09:09:19.702Z,2920.00
2018-11-27T09:10:19.724Z,3076.00
2018-11-27T09:11:19.771Z,3128.00
2018-11-27T09:12:19.838Z,3104.00
2018-11-27T09:13:19.868Z,3096.00
2018-11-27T09:14:19.897Z,3176.00
2018-11-27T09:15:19.932Z,3288.00
2018-11-27T09:16:19.986Z,3360.00
2018-11-27T09:17:20.051Z,3440.00
2018-11-27T09:18:20.083Z,3532.00
2018-11-27T09:19:20.118Z,3588.00
2018-11-27T09:20:20.958Z,3728.00
2018-11-27T09:21:20.191Z,3996.00
2018-11-27T09:22:20.310Z,4224.00
2018-11-27T09:23:20.269Z,4392.00
2018-11-27T09:24:20.344Z,4568.00
2018-11-27T09:25:20.350Z,4696.00
2018-11-27T09:26:20.407Z,4664.00
2018-11-27T09:27:20.453Z,4472.00
2018-11-27T09:28:20.478Z,4196.00
2018-11-27T09:29:20.641Z,3956.00
2018-11-27T09:30:20.553Z,3780.00
2018-11-27T09:31:20.614Z,3692.00
2018-11-27T09:32:20.659Z,3660.00
2018-11-27T09:33:20.680Z,3640.00
2018-11-27T09:34:20.721Z,3620.00
2018-11-27T09:35:20.791Z,3552.00
2018-11-27T09:36:20.829Z,3412.00
2018-11-27T09:37:20.853Z,3264.00
2018-11-27T09:38:20.895Z,3092.00
2018-11-27T09:39:20.929Z,2908.00
2018-11-27T09:40:20.977Z,2704.00
2018-11-27T09:41:21.032Z,2552.00
2018-11-27T09:42:21.053Z,2456.00
2018-11-27T09:43:21.098Z,2380.00
2018-11-27T09:44:21.136Z,2344.00
2018-11-27T09:45:21.181Z,2312.00
2018-11-27T09:46:21.237Z,2264.00
2018-11-27T09:47:21.285Z,2220.00
2018-11-27T09:48:21.306Z,2188.00
2018-11-27T09:49:21.372Z,2196.00
2018-11-27T09:50:21.395Z,2212.00
2018-11-27T09:51:21.457Z,2248.00
2018-11-27T09:52:21.486Z,2276.00
2018-11-27T09:53:21.514Z,2284.00
2018-11-27T09:54:21.557Z,2280.00
2018-11-27T09:55:21.596Z,2268.00
2018-11-27T09:56:21.641Z,2296.00
2018-11-27T09:57:21.709Z,2336.00
2018-11-27T09:58:21.754Z,2404.00
2018-11-27T09:59:21.758Z,2488.00
2018-11-27T10:00:21.803Z,2540.00
2018-11-27T10:01:21.938Z,2568.00
2018-11-27T10:02:21.907Z,2640.00
2018-11-27T10:03:21.926Z,2708.00
2018-11-27T10:04:21.966Z,2808.00
2018-11-27T10:05:22.031Z,2916.00
2018-11-27T10:06:22.047Z,3024.00
2018-11-27T10:07:22.110Z,3124.00
2018-11-27T10:08:22.207Z,3224.00
2018-11-27T10:09:22.176Z,3328.00
2018-11-27T10:10:22.222Z,3416.00
2018-11-27T10:11:22.255Z,3512.00
2018-11-27T10:12:22.298Z,3628.00
2018-11-27T10:13:22.365Z,3752.00
2018-11-27T10:14:22.382Z,3916.00
2018-11-27T10:15:22.439Z,4076.00
2018-11-27T10:16:22.470Z,4276.00
2018-11-27T10:17:22.507Z,4420.00
2018-11-27T10:18:22.569Z,4604.00
2018-11-27T10:19:26.701Z,4816.00
2018-11-27T10:20:22.664Z,5020.00
2018-11-27T10:21:22.673Z,5136.00
2018-11-27T10:22:22.721Z,5112.00
2018-11-27T10:23:22.755Z,5004.00
2018-11-27T10:24:22.851Z,4860.00
2018-11-27T10:25:22.841Z,4780.00
2018-11-27T10:26:22.943Z,4740.00
2018-11-27T10:27:22.921Z,4748.00
2018-11-27T10:28:22.976Z,4796.00
2018-11-27T10:29:23.013Z,4900.00
2018-11-27T10:30:23.110Z,5016.00
2018-11-27T10:31:23.108Z,5164.00
2018-11-27T10:32:23.132Z,5332.00
2018-11-27T10:33:23.182Z,5544.00
2018-11-27T10:34:23.230Z,5736.00
2018-11-27T10:35:23.253Z,5968.00
2018-11-27T10:36:23.316Z,6124.00
2018-11-27T10:37:23.342Z,6272.00
2018-11-27T10:38:23.403Z,6396.00
2018-11-27T10:39:23.425Z,6572.00
2018-11-27T10:40:23.461Z,6692.00
2018-11-27T10:41:23.523Z,6756.00
2018-11-27T10:42:23.558Z,6680.00
2018-11-27T10:43:23.610Z,6544.00
2018-11-27T10:44:23.627Z,6360.00
2018-11-27T10:45:23.683Z,6184.00
2018-11-27T10:46:23.735Z,6060.00
2018-11-27T10:47:23.749Z,5948.00
2018-11-27T10:48:23.815Z,5880.00
2018-11-27T10:49:23.953Z,5860.00
2018-11-27T10:50:23.930Z,5884.00
2018-11-27T10:51:23.941Z,5936.00
2018-11-27T10:52:23.962Z,6004.00
2018-11-27T10:53:24.009Z,6076.00
2018-11-27T10:54:24.046Z,6076.00
2018-11-27T10:55:24.101Z,6008.00
2018-11-27T10:56:24.128Z,5904.00
2018-11-27T10:57:24.188Z,5760.00
2018-11-27T10:58:24.229Z,5588.00
2018-11-27T10:59:24.257Z,5360.00
2018-11-27T11:00:24.290Z,5100.00
2018-11-27T11:01:24.359Z,4780.00
2018-11-27T11:02:24.394Z,4436.00
2018-11-27T11:03:24.428Z,4112.00
2018-11-27T11:04:24.485Z,3828.00
2018-11-27T11:05:24.499Z,3628.00
2018-11-27T11:06:25.175Z,3536.00
2018-11-27T11:07:24.609Z,3480.00
2018-11-27T11:08:24.623Z,3404.00
2018-11-27T11:09:24.661Z,3344.00
2018-11-27T11:10:24.715Z,3320.00
2018-11-27T11:11:24.771Z,3340.00
2018-11-27T11:12:24.794Z,3408.00
2018-11-27T11:13:24.841Z,3516.00
2018-11-27T11:14:24.900Z,3632.00
2018-11-27T11:15:24.911Z,3764.00
2018-11-27T11:16:24.970Z,3848.00
2018-11-27T11:17:24.999Z,3872.00
2018-11-27T11:18:25.034Z,3880.00
2018-11-27T11:19:25.094Z,3816.00
2018-11-27T11:20:25.121Z,3732.00
2018-11-27T11:21:25.192Z,3640.00
2018-11-27T11:22:25.214Z,3552.00
2018-11-27T11:23:25.258Z,3452.00
2018-11-27T11:24:25.306Z,3348.00
2018-11-27T11:25:25.323Z,3272.00
2018-11-27T11:26:25.366Z,3212.00
2018-11-27T11:27:25.412Z,3164.00
2018-11-27T11:28:25.560Z,3128.00
2018-11-27T11:29:25.531Z,3144.00
2018-11-27T11:30:25.557Z,3256.00
2018-11-27T11:31:25.574Z,3416.00
2018-11-27T11:32:25.623Z,3592.00
2018-11-27T11:33:25.665Z,3792.00
2018-11-27T11:34:25.705Z,4008.00
2018-11-27T11:35:25.904Z,4152.00
2018-11-27T11:36:25.798Z,4196.00
2018-11-27T11:37:25.834Z,4220.00
2018-11-27T11:38:25.874Z,4296.00
2018-11-27T11:39:25.908Z,4480.00
2018-11-27T11:40:25.998Z,4808.00
2018-11-27T11:41:31.174Z,5228.00
2018-11-27T11:42:26.047Z,5732.00
2018-11-27T11:43:26.083Z,6292.00
2018-11-27T11:44:26.114Z,6848.00
2018-11-27T11:45:26.192Z,7408.00
2018-11-27T11:46:26.202Z,7940.00
2018-11-27T11:47:26.520Z,8428.00
2018-11-27T11:48:26.282Z,8864.00
2018-11-27T11:49:26.324Z,9156.00
2018-11-27T11:50:26.371Z,9280.00
2018-11-27T11:51:26.407Z,9228.00
2018-11-27T11:52:26.457Z,8908.00
2018-11-27T11:53:26.522Z,8452.00
2018-11-27T11:54:26.529Z,8084.00
2018-11-27T11:55:26.570Z,7796.00
2018-11-27T11:56:26.665Z,7508.00
2018-11-27T11:57:26.684Z,7160.00
2018-11-27T11:58:26.729Z,6712.00
2018-11-27T11:59:28.829Z,6224.00
2018-11-27T12:00:26.841Z,5840.00
2018-11-27T12:01:26.828Z,5656.00
2018-11-27T12:02:26.914Z,5624.00
2018-11-27T12:03:26.938Z,5724.00
2018-11-27T12:04:26.952Z,5916.00
2018-11-27T12:05:27.012Z,6108.00
2018-11-27T12:06:27.027Z,6216.00
2018-11-27T12:07:27.077Z,6228.00
2018-11-27T12:08:27.143Z,6180.00
2018-11-27T12:09:27.155Z,6156.00
2018-11-27T12:10:27.194Z,6144.00
2018-11-27T12:11:27.236Z,6136.00
2018-11-27T12:12:27.277Z,6140.00
2018-11-27T12:13:27.341Z,6100.00
2018-11-27T12:14:27.363Z,5876.00
2018-11-27T12:15:27.405Z,5412.00
2018-11-27T12:16:28.175Z,4940.00
2018-11-27T12:17:27.488Z,4640.00
2018-11-27T12:18:27.546Z,4428.00
2018-11-27T12:19:27.586Z,4252.00
2018-11-27T12:20:27.618Z,4084.00
2018-11-27T12:21:27.667Z,3912.00
2018-11-27T12:22:27.697Z,3728.00
2018-11-27T12:23:27.806Z,3536.00
2018-11-27T12:24:27.825Z,3384.00
2018-11-27T12:25:27.830Z,3240.00
2018-11-27T12:26:27.861Z,3112.00
2018-11-27T12:27:27.906Z,2976.00
2018-11-27T12:28:27.971Z,2844.00
2018-11-27T12:29:28.013Z,2720.00
2018-11-27T12:30:28.051Z,2612.00
2018-11-27T12:31:28.077Z,2544.00
2018-11-27T12:32:28.114Z,2512.00
2018-11-27T12:33:28.157Z,2500.00
2018-11-27T12:34:28.202Z,2492.00
2018-11-27T12:35:28.259Z,2484.00
2018-11-27T12:36:28.291Z,2476.00
2018-11-27T12:37:28.329Z,2496.00
2018-11-27T12:38:28.369Z,2512.00
2018-11-27T12:39:28.405Z,2508.00
2018-11-27T12:40:28.487Z,2472.00
2018-11-27T12:41:28.491Z,2404.00
2018-11-27T12:42:28.524Z,2328.00
2018-11-27T12:43:28.577Z,2284.00